createdAt,value
2017-04-13T00:00:13.271Z,99.99
2017-04-13T00:01:25.535Z,99.99
2017-04-13T00:02:38.038Z,99.99
2017-04-13T00:03:50.559Z,99.99
2017-04-13T00:05:03.107Z,99.99
2017-04-13T00:06:15.343Z,99.99
2017-04-13T00:07:27.564Z,99.99
2017-04-13T00:08:39.784Z,99.99
2017-04-13T00:09:52.317Z,99.99
2017-04-13T00:11:04.584Z,99.99
2017-04-13T00:12:17.105Z,99.99
2017-04-13T00:13:29.654Z,99.99
2017-04-13T00:14:42.172Z,99.99
2017-04-13T00:15:54.688Z,99.99
2017-04-13T00:17:06.617Z,99.78
2017-04-13T00:18:19.181Z,99.99
2017-04-13T00:19:31.726Z,99.99
2017-04-13T00:20:44.245Z,99.99
2017-04-13T00:21:56.790Z,99.99
2017-04-13T00:23:09.019Z,99.99
2017-04-13T00:24:21.566Z,99.3
2017-04-13T00:25:34.135Z,99.11
2017-04-13T00:26:46.673Z,99.02
2017-04-13T00:27:59.252Z,99.3
2017-04-13T00:29:11.476Z,99.21
2017-04-13T00:30:23.714Z,99.02
2017-04-13T00:31:35.958Z,99.3
2017-04-13T00:32:48.489Z,99.21
2017-04-13T00:34:00.730Z,99.02
2017-04-13T00:35:13.203Z,98.97
2017-04-13T00:36:25.727Z,99.21
2017-04-13T00:37:38.261Z,99.11
2017-04-13T00:38:50.496Z,99.16
2017-04-13T00:40:03.064Z,99.26
2017-04-13T00:41:15.628Z,98.97
2017-04-13T00:42:28.170Z,99.16
2017-04-13T00:43:40.704Z,99.07
2017-04-13T00:44:53.247Z,99.07
2017-04-13T00:46:05.461Z,99.26
2017-04-13T00:47:17.689Z,99.16
2017-04-13T00:48:30.207Z,99.07
2017-04-13T00:49:42.432Z,99.35
2017-04-13T00:50:54.966Z,98.97
2017-04-13T00:52:07.520Z,99.26
2017-04-13T00:53:20.059Z,99.07
2017-04-13T00:54:31.982Z,98.79
2017-04-13T00:55:44.524Z,98.69
2017-04-13T00:56:57.022Z,98.59
2017-04-13T00:58:09.578Z,98.4
2017-04-13T00:59:22.099Z,98.97
2017-04-13T01:00:34.370Z,98.88
2017-04-13T01:01:46.916Z,98.79
2017-04-13T01:02:59.803Z,98.69
2017-04-13T01:04:11.450Z,98.79
2017-04-13T01:05:23.979Z,98.79
2017-04-13T01:06:36.490Z,98.5
2017-04-13T01:07:49.309Z,98.79
2017-04-13T01:09:01.824Z,98.79
2017-04-13T01:10:14.359Z,98.5
2017-04-13T01:11:26.879Z,98.59
2017-04-13T01:12:39.393Z,98.97
2017-04-13T01:13:51.925Z,98.97
2017-04-13T01:15:04.438Z,99.26
2017-04-13T01:16:16.984Z,99.35
2017-04-13T01:17:29.509Z,99.44
2017-04-13T01:18:42.326Z,98.69
2017-04-13T01:19:54.868Z,98.79
2017-04-13T01:21:07.389Z,98.97
2017-04-13T01:22:19.611Z,98.79
2017-04-13T01:23:32.107Z,98.97
2017-04-13T01:24:44.962Z,99.16
2017-04-13T01:25:57.526Z,99.16
2017-04-13T01:27:10.054Z,99.35
2017-04-13T01:28:22.590Z,98.97
2017-04-13T01:29:35.093Z,98.79
2017-04-13T01:30:47.590Z,98.88
2017-04-13T01:32:00.113Z,98.59
2017-04-13T01:33:12.380Z,98.79
2017-04-13T01:34:24.622Z,98.79
2017-04-13T01:35:37.173Z,98.59
2017-04-13T01:36:49.722Z,98.88
2017-04-13T01:38:02.260Z,98.4
2017-04-13T01:39:14.813Z,98.59
2017-04-13T01:40:27.057Z,98.59
2017-04-13T01:41:39.295Z,98.79
2017-04-13T01:42:51.801Z,98.31
2017-04-13T01:44:04.343Z,98.69
2017-04-13T01:45:16.857Z,98.69
2017-04-13T01:46:29.379Z,98.79
2017-04-13T01:47:41.899Z,98.79
2017-04-13T01:48:54.420Z,98.5
2017-04-13T01:50:06.941Z,98.59
2017-04-13T01:51:19.736Z,98.31
2017-04-13T01:52:32.259Z,98.79
2017-04-13T01:53:44.837Z,98.5
2017-04-13T01:54:57.379Z,98.02
2017-04-13T01:56:09.607Z,98.45
2017-04-13T01:57:22.173Z,98.73
2017-04-13T01:58:34.370Z,97.69
2017-04-13T01:59:46.609Z,98.12
2017-04-13T02:00:59.143Z,98.45
2017-04-13T02:02:11.974Z,98.69
2017-04-13T02:03:24.199Z,97.83
2017-04-13T02:04:36.745Z,97.88
2017-04-13T02:05:48.988Z,98.35
2017-04-13T02:07:01.533Z,98.16
2017-04-13T02:08:14.030Z,98.07
2017-04-13T02:09:26.609Z,97.88
2017-04-13T02:10:39.136Z,98.07
2017-04-13T02:11:51.646Z,98.26
2017-04-13T02:13:04.416Z,98.07
2017-04-13T02:14:16.939Z,98.26
2017-04-13T02:15:29.458Z,98.16
2017-04-13T02:16:41.976Z,97.78
2017-04-13T02:17:54.530Z,98.16
2017-04-13T02:19:07.054Z,97.69
2017-04-13T02:20:19.022Z,98.07
2017-04-13T02:21:31.560Z,98.26
2017-04-13T02:22:43.764Z,98.35
2017-04-13T02:23:56.288Z,97.88
2017-04-13T02:25:08.809Z,98.16
2017-04-13T02:26:21.318Z,98.16
2017-04-13T02:27:33.840Z,98.16
2017-04-13T02:28:46.372Z,97.88
2017-04-13T02:29:58.934Z,97.88
2017-04-13T02:31:11.180Z,97.69
2017-04-13T02:32:23.757Z,98.45
2017-04-13T02:33:36.279Z,97.97
2017-04-13T02:34:49.097Z,98.64
2017-04-13T02:36:01.643Z,98.64
2017-04-13T02:37:14.181Z,97.88
2017-04-13T02:38:26.710Z,98.83
2017-04-13T02:39:39.236Z,98.64
2017-04-13T02:40:52.069Z,98.73
2017-04-13T02:42:04.265Z,98.73
2017-04-13T02:43:16.493Z,98.64
2017-04-13T02:44:29.084Z,98.26
2017-04-13T02:45:41.587Z,98.83
2017-04-13T02:46:54.102Z,98.73
2017-04-13T02:48:06.356Z,98.83
2017-04-13T02:49:18.899Z,98.83
2017-04-13T02:50:31.412Z,98.83
2017-04-13T02:51:43.915Z,98.64
2017-04-13T02:52:56.446Z,98.92
2017-04-13T02:54:08.668Z,98.54
2017-04-13T02:55:21.170Z,98.73
2017-04-13T02:56:33.691Z,97.97
2017-04-13T02:57:46.238Z,98.07
2017-04-13T02:58:58.801Z,97.97
2017-04-13T03:00:11.290Z,98.83
2017-04-13T03:01:23.812Z,98.26
2017-04-13T03:02:36.107Z,98.83
2017-04-13T03:03:48.645Z,98.73
2017-04-13T03:05:01.198Z,98.54
2017-04-13T03:06:13.733Z,98.64
2017-04-13T03:07:26.266Z,98.92
2017-04-13T03:08:38.799Z,98.64
2017-04-13T03:09:50.721Z,98.64
2017-04-13T03:11:03.203Z,99.26
2017-04-13T03:12:15.423Z,99.16
2017-04-13T03:13:27.634Z,99.06
2017-04-13T03:14:40.163Z,99.16
2017-04-13T03:15:52.705Z,99.16
2017-04-13T03:17:04.922Z,99.16
2017-04-13T03:18:17.732Z,99.16
2017-04-13T03:19:29.950Z,99.26
2017-04-13T03:20:42.480Z,99.44
2017-04-13T03:21:55.034Z,99.35
2017-04-13T03:23:07.556Z,99.06
2017-04-13T03:24:20.110Z,99.06
2017-04-13T03:25:32.680Z,98.78
2017-04-13T03:26:45.225Z,99.44
2017-04-13T03:27:57.763Z,99.26
2017-04-13T03:29:10.310Z,99.73
2017-04-13T03:30:22.531Z,99.99
2017-04-13T03:31:35.073Z,99.91
2017-04-13T03:32:47.585Z,99.73
2017-04-13T03:33:59.801Z,99.63
2017-04-13T03:35:12.351Z,99.54
2017-04-13T03:36:24.890Z,99.99
2017-04-13T03:37:37.413Z,99.82
2017-04-13T03:38:49.976Z,99.99
2017-04-13T03:40:02.223Z,99.99
2017-04-13T03:41:14.748Z,99.99
2017-04-13T03:42:27.264Z,99.99
2017-04-13T03:43:39.481Z,99.91
2017-04-13T03:44:52.012Z,99.99
2017-04-13T03:46:04.548Z,99.99
2017-04-13T03:47:17.052Z,99.96
2017-04-13T03:48:29.273Z,99.99
2017-04-13T03:49:41.789Z,99.99
2017-04-13T03:50:54.610Z,99.99
2017-04-13T03:52:07.153Z,99.99
2017-04-13T03:53:19.374Z,99.99
2017-04-13T03:54:31.853Z,99.99
2017-04-13T03:55:44.390Z,99.99
2017-04-13T03:56:56.922Z,99.99
2017-04-13T03:58:09.458Z,99.99
2017-04-13T03:59:21.986Z,99.99
2017-04-13T04:00:34.482Z,99.99
2017-04-13T04:01:47.328Z,99.99
2017-04-13T04:02:59.849Z,99.99
2017-04-13T04:04:12.090Z,99.99
2017-04-13T04:05:24.294Z,99.99
2017-04-13T04:06:36.843Z,99.99
2017-04-13T04:07:49.375Z,99.99
2017-04-13T04:09:01.624Z,99.99
2017-04-13T04:10:14.153Z,99.99
2017-04-13T04:11:26.666Z,99.99
2017-04-13T04:12:39.171Z,99.99
2017-04-13T04:13:51.707Z,99.99
2017-04-13T04:15:04.236Z,99.99
2017-04-13T04:16:16.479Z,99.99
2017-04-13T04:17:28.999Z,99.99
2017-04-13T04:18:41.541Z,99.99
2017-04-13T04:19:54.087Z,99.99
2017-04-13T04:21:06.613Z,99.99
2017-04-13T04:22:19.129Z,99.99
2017-04-13T04:23:31.662Z,99.99
2017-04-13T04:24:44.202Z,99.99
2017-04-13T04:25:56.739Z,99.99
2017-04-13T04:27:09.258Z,99.99
2017-04-13T04:28:21.788Z,99.99
2017-04-13T04:29:34.309Z,99.99
2017-04-13T04:30:46.805Z,99.99
2017-04-13T04:31:59.319Z,99.99
2017-04-13T04:33:11.851Z,99.99
2017-04-13T04:34:24.393Z,99.99
2017-04-13T04:35:36.907Z,99.99
2017-04-13T04:36:49.427Z,99.99
2017-04-13T04:38:01.933Z,99.99
2017-04-13T04:39:14.477Z,99.99
2017-04-13T04:40:27.000Z,99.99
2017-04-13T04:41:39.214Z,99.99
2017-04-13T04:42:51.735Z,99.99
2017-04-13T04:44:03.985Z,99.99
2017-04-13T04:45:16.755Z,99.99
2017-04-13T04:46:29.277Z,99.99
2017-04-13T04:47:41.500Z,99.99
2017-04-13T04:48:54.037Z,99.99
2017-04-13T04:50:06.543Z,99.99
2017-04-13T04:51:19.057Z,99.99
2017-04-13T04:52:31.581Z,99.99
2017-04-13T04:53:43.794Z,99.99
2017-04-13T04:54:56.298Z,99.99
2017-04-13T04:56:08.799Z,99.99
2017-04-13T04:57:21.315Z,99.99
2017-04-13T04:58:33.829Z,99.99
2017-04-13T04:59:46.332Z,99.99
2017-04-13T05:00:58.844Z,99.99
2017-04-13T05:02:11.355Z,99.91
2017-04-13T05:03:23.874Z,99.82
2017-04-13T05:04:36.112Z,99.99
2017-04-13T05:05:48.613Z,99.99
2017-04-13T05:07:01.451Z,99.99
2017-04-13T05:08:13.698Z,99.99
2017-04-13T05:09:25.974Z,99.99
2017-04-13T05:10:38.495Z,99.91
2017-04-13T05:11:51.011Z,99.99
2017-04-13T05:13:03.554Z,99.73
2017-04-13T05:14:16.075Z,99.54
2017-04-13T05:15:28.296Z,99.73
2017-04-13T05:16:40.791Z,99.73
2017-04-13T05:17:53.595Z,99.73
2017-04-13T05:19:05.809Z,99.87
2017-04-13T05:20:18.312Z,99.16
2017-04-13T05:21:30.858Z,99.06
2017-04-13T05:22:43.071Z,99.3
2017-04-13T05:23:55.592Z,99.21
2017-04-13T05:25:08.124Z,99.16
2017-04-13T05:26:20.638Z,99.16
2017-04-13T05:27:33.159Z,98.68
2017-04-13T05:28:45.908Z,99.06
2017-04-13T05:29:58.421Z,98.87
2017-04-13T05:31:10.947Z,98.87
2017-04-13T05:32:23.493Z,98.87
2017-04-13T05:33:35.714Z,98.87
2017-04-13T05:34:48.255Z,98.78
2017-04-13T05:36:00.443Z,98.68
2017-04-13T05:37:12.658Z,98.59
2017-04-13T05:38:25.168Z,98.78
2017-04-13T05:39:37.947Z,98.97
2017-04-13T05:40:50.488Z,98.59
2017-04-13T05:42:03.006Z,98.87
2017-04-13T05:43:15.513Z,98.59
2017-04-13T05:44:28.047Z,98.59
2017-04-13T05:45:40.600Z,99.35
2017-04-13T05:46:53.115Z,98.97
2017-04-13T05:48:05.671Z,98.68
2017-04-13T05:49:18.189Z,98.49
2017-04-13T05:50:30.740Z,98.68
2017-04-13T05:51:43.288Z,98.68
2017-04-13T05:52:55.806Z,98.49
2017-04-13T05:54:08.310Z,98.21
2017-04-13T05:55:20.844Z,98.87
2017-04-13T05:56:33.385Z,98.68
2017-04-13T05:57:45.910Z,98.87
2017-04-13T05:58:58.427Z,98.59
2017-04-13T06:00:10.977Z,98.68
2017-04-13T06:01:23.516Z,98.78
2017-04-13T06:02:36.053Z,98.49
2017-04-13T06:03:48.247Z,98.02
2017-04-13T06:05:00.789Z,98.3
2017-04-13T06:06:13.007Z,98.54
2017-04-13T06:07:25.560Z,97.88
2017-04-13T06:08:38.093Z,98.21
2017-04-13T06:09:50.341Z,98.35
2017-04-13T06:11:02.840Z,98.26
2017-04-13T06:12:15.359Z,97.88
2017-04-13T06:13:27.003Z,98.35
2017-04-13T06:14:39.548Z,98.35
2017-04-13T06:15:52.066Z,97.6
2017-04-13T06:17:04.637Z,97.41
2017-04-13T06:18:17.170Z,98.07
2017-04-13T06:19:29.690Z,96.74
2017-04-13T06:20:42.224Z,97.5
2017-04-13T06:21:54.750Z,97.88
2017-04-13T06:23:07.570Z,96.69
2017-04-13T06:24:20.100Z,96.98
2017-04-13T06:25:32.619Z,97.17
2017-04-13T06:26:45.137Z,96.69
2017-04-13T06:27:57.686Z,96.69
2017-04-13T06:29:10.235Z,96.79
2017-04-13T06:30:22.775Z,97.27
2017-04-13T06:31:35.299Z,96.31
2017-04-13T06:32:47.245Z,96.31
2017-04-13T06:33:59.791Z,96.26
2017-04-13T06:35:12.311Z,96.55
2017-04-13T06:36:24.857Z,96.26
2017-04-13T06:37:37.392Z,97.31
2017-04-13T06:38:49.297Z,95.79
2017-04-13T06:40:01.834Z,95.89
2017-04-13T06:41:14.066Z,95.89
2017-04-13T06:42:26.311Z,94.89
2017-04-13T06:43:38.900Z,95.08
2017-04-13T06:44:51.379Z,94.89
2017-04-13T06:46:03.921Z,94.7
2017-04-13T06:47:16.148Z,94.6
2017-04-13T06:48:28.688Z,94.98
2017-04-13T06:49:41.214Z,95.46
2017-04-13T06:50:53.748Z,93.46
2017-04-13T06:52:06.306Z,94.6
2017-04-13T06:53:18.546Z,94.84
2017-04-13T06:54:31.089Z,94.27
2017-04-13T06:55:43.638Z,93.89
2017-04-13T06:56:56.162Z,93.79
2017-04-13T06:58:08.684Z,93.18
2017-04-13T06:59:20.929Z,94.79
2017-04-13T07:00:33.171Z,93.18
2017-04-13T07:01:45.089Z,92.36
2017-04-13T07:02:57.643Z,92.27
2017-04-13T07:04:10.195Z,92.84
2017-04-13T07:05:22.734Z,91.22
2017-04-13T07:06:35.273Z,91.17
2017-04-13T07:07:47.853Z,92.79
2017-04-13T07:09:00.398Z,90.7
2017-04-13T07:10:12.644Z,89.84
2017-04-13T07:11:24.877Z,90.22
2017-04-13T07:12:37.406Z,90.31
2017-04-13T07:13:49.936Z,90.7
2017-04-13T07:15:02.490Z,91.55
2017-04-13T07:16:15.019Z,90.12
2017-04-13T07:17:27.508Z,89.94
2017-04-13T07:18:39.731Z,89.26
2017-04-13T07:19:52.281Z,89.26
2017-04-13T07:21:04.803Z,89.84
2017-04-13T07:22:17.353Z,89.65
2017-04-13T07:23:29.894Z,89.94
2017-04-13T07:24:42.415Z,91.08
2017-04-13T07:25:54.358Z,88.55
2017-04-13T07:27:06.907Z,89.31
2017-04-13T07:28:19.453Z,89.5
2017-04-13T07:29:31.700Z,88.84
2017-04-13T07:30:43.623Z,89.12
2017-04-13T07:31:55.862Z,87.79
2017-04-13T07:33:07.807Z,88.21
2017-04-13T07:34:20.052Z,89.36
2017-04-13T07:35:31.381Z,87.07
2017-04-13T07:36:43.926Z,89.17
2017-04-13T07:37:55.870Z,88.21
2017-04-13T07:39:08.131Z,87.07
2017-04-13T07:40:20.340Z,87.45
2017-04-13T07:41:32.586Z,87.54
2017-04-13T07:42:44.499Z,86.92
2017-04-13T07:43:57.031Z,87.49
2017-04-13T07:45:09.599Z,88.54
2017-04-13T07:46:21.809Z,86.25
2017-04-13T07:47:34.355Z,86.44
2017-04-13T07:48:46.880Z,87.59
2017-04-13T07:49:59.149Z,86.73
2017-04-13T07:51:11.403Z,85.44
2017-04-13T07:52:23.647Z,86.1
2017-04-13T07:53:35.285Z,84.48
2017-04-13T07:54:47.216Z,84.2
2017-04-13T07:55:59.130Z,82.86
2017-04-13T07:57:11.057Z,84.34
2017-04-13T07:58:22.979Z,83.96
2017-04-13T07:59:34.631Z,86.16
2017-04-13T08:00:47.172Z,84.92
2017-04-13T08:01:59.105Z,85.11
2017-04-13T08:03:11.030Z,84.06
2017-04-13T08:04:23.577Z,84.63
2017-04-13T08:05:35.830Z,84.72
2017-04-13T08:06:48.372Z,84.63
2017-04-13T08:08:00.597Z,84.4
2017-04-13T08:09:12.814Z,86.78
2017-04-13T08:10:24.762Z,85.45
2017-04-13T08:11:36.998Z,86.69
2017-04-13T08:12:48.957Z,85.02
2017-04-13T08:14:01.193Z,86.65
2017-04-13T08:15:13.125Z,87.31
2017-04-13T08:16:25.661Z,86.93
2017-04-13T08:17:37.588Z,85.78
2017-04-13T08:18:49.249Z,86.65
2017-04-13T08:20:01.462Z,86.65
2017-04-13T08:21:13.374Z,87.27
2017-04-13T08:22:25.602Z,88.98
2017-04-13T08:23:37.817Z,86.6
2017-04-13T08:24:49.804Z,86.69
2017-04-13T08:26:01.710Z,87.55
2017-04-13T08:27:14.253Z,87.65
2017-04-13T08:28:26.177Z,87.65
2017-04-13T08:29:38.112Z,87.93
2017-04-13T08:30:50.336Z,88.7
2017-04-13T08:32:02.879Z,88.41
2017-04-13T08:33:15.410Z,87.74
2017-04-13T08:34:27.650Z,87.27
2017-04-13T08:35:39.603Z,88.79
2017-04-13T08:36:51.562Z,88.03
2017-04-13T08:38:03.488Z,88.75
2017-04-13T08:39:15.741Z,88.27
2017-04-13T08:40:27.950Z,88.56
2017-04-13T08:41:40.157Z,88.46
2017-04-13T08:42:52.101Z,88.46
2017-04-13T08:44:04.649Z,88.22
2017-04-13T08:45:16.567Z,88.79
2017-04-13T08:46:28.793Z,88.79
2017-04-13T08:47:40.733Z,88.98
2017-04-13T08:48:52.962Z,87.07
2017-04-13T08:50:05.218Z,88.03
2017-04-13T08:51:17.764Z,89.26
2017-04-13T08:52:30.313Z,87.17
2017-04-13T08:53:42.897Z,87.55
2017-04-13T08:54:54.839Z,87.27
2017-04-13T08:56:07.404Z,86.6
2017-04-13T08:57:19.619Z,87.36
2017-04-13T08:58:32.139Z,87.23
2017-04-13T08:59:43.735Z,87.17
2017-04-13T09:00:55.742Z,89.22
2017-04-13T09:02:07.077Z,87.13
2017-04-13T09:03:18.702Z,88.65
2017-04-13T09:04:30.655Z,87.41
2017-04-13T09:05:42.615Z,88.37
2017-04-13T09:06:54.215Z,88.75
2017-04-13T09:08:06.132Z,87.98
2017-04-13T09:09:18.039Z,87.98
2017-04-13T09:10:30.269Z,87.23
2017-04-13T09:11:42.801Z,88.08
2017-04-13T09:12:54.444Z,89.13
2017-04-13T09:14:06.990Z,88.37
2017-04-13T09:15:19.237Z,88.46
2017-04-13T09:16:31.478Z,88.18
2017-04-13T09:17:43.675Z,88.84
2017-04-13T09:18:56.207Z,87.51
2017-04-13T09:20:08.142Z,87.41
2017-04-13T09:21:20.362Z,88.56
2017-04-13T09:22:32.309Z,86.84
2017-04-13T09:23:44.541Z,87.98
2017-04-13T09:24:56.183Z,88.03
2017-04-13T09:26:08.702Z,86.88
2017-04-13T09:27:21.253Z,87.07
2017-04-13T09:28:33.814Z,87.36
2017-04-13T09:29:46.048Z,86.98
2017-04-13T09:30:58.582Z,87.17
2017-04-13T09:32:10.834Z,86.03
2017-04-13T09:33:23.072Z,86.12
2017-04-13T09:34:35.597Z,88.03
2017-04-13T09:35:48.114Z,87.12
2017-04-13T09:37:00.367Z,86.74
2017-04-13T09:38:13.143Z,88.07
2017-04-13T09:39:25.705Z,87.12
2017-04-13T09:40:37.655Z,86.83
2017-04-13T09:41:49.605Z,87.5
2017-04-13T09:43:02.172Z,87.21
2017-04-13T09:44:14.410Z,86.93
2017-04-13T09:45:26.977Z,87.5
2017-04-13T09:46:39.530Z,86.45
2017-04-13T09:47:51.755Z,86.45
2017-04-13T09:49:04.283Z,86.88
2017-04-13T09:50:16.526Z,85.46
2017-04-13T09:51:28.446Z,86.22
2017-04-13T09:52:39.791Z,86.98
2017-04-13T09:53:51.430Z,86.55
2017-04-13T09:55:03.381Z,87.12
2017-04-13T09:56:15.321Z,86.83
2017-04-13T09:57:27.851Z,87.4
2017-04-13T09:58:40.394Z,86.55
2017-04-13T09:59:52.935Z,86.07
2017-04-13T10:01:05.182Z,87.16
2017-04-13T10:02:17.435Z,83.92
2017-04-13T10:03:29.974Z,85.93
2017-04-13T10:04:42.528Z,85.25
2017-04-13T10:05:54.463Z,85.83
2017-04-13T10:07:06.757Z,85.16
2017-04-13T10:08:18.386Z,85.64
2017-04-13T10:09:30.307Z,85.83
2017-04-13T10:10:42.247Z,85.25
2017-04-13T10:11:53.867Z,85.16
2017-04-13T10:13:05.795Z,86.11
2017-04-13T10:14:17.708Z,84.4
2017-04-13T10:15:30.233Z,84.97
2017-04-13T10:16:42.483Z,84.01
2017-04-13T10:17:54.428Z,84.11
2017-04-13T10:19:06.371Z,85.06
2017-04-13T10:20:18.324Z,84.11
2017-04-13T10:21:30.863Z,83.64
2017-04-13T10:22:43.405Z,83.64
2017-04-13T10:23:55.335Z,82.87
2017-04-13T10:25:07.279Z,83.35
2017-04-13T10:26:19.530Z,81.4
2017-04-13T10:27:31.753Z,79.78
2017-04-13T10:28:43.977Z,80.83
2017-04-13T10:29:56.209Z,81.3
2017-04-13T10:31:08.466Z,81.25
2017-04-13T10:32:20.405Z,81.73
2017-04-13T10:33:32.954Z,82.11
2017-04-13T10:34:45.198Z,81.73
2017-04-13T10:35:57.743Z,80.2
2017-04-13T10:37:10.280Z,79.06
2017-04-13T10:38:22.805Z,79.35
2017-04-13T10:39:35.359Z,78.77
2017-04-13T10:40:47.602Z,77.67
2017-04-13T10:42:00.149Z,77.86
2017-04-13T10:43:12.414Z,76.81
2017-04-13T10:44:24.667Z,75.57
2017-04-13T10:45:37.232Z,74.99
2017-04-13T10:46:49.776Z,77.28
2017-04-13T10:48:01.977Z,76.01
2017-04-13T10:49:14.545Z,77.15
2017-04-13T10:50:26.761Z,76.86
2017-04-13T10:51:38.710Z,76.1
2017-04-13T10:52:50.356Z,76.67
2017-04-13T10:54:02.583Z,77.34
2017-04-13T10:55:14.498Z,79.72
2017-04-13T10:56:26.744Z,80.01
2017-04-13T10:57:38.986Z,79.72
2017-04-13T10:58:51.233Z,79.15
2017-04-13T11:00:02.538Z,77.53
2017-04-13T11:01:13.861Z,75.66
2017-04-13T11:02:26.453Z,74.9
2017-04-13T11:03:38.070Z,73.6
2017-04-13T11:04:50.620Z,73.22
2017-04-13T11:06:03.164Z,72.07
2017-04-13T11:07:15.687Z,71.21
2017-04-13T11:08:27.625Z,70.45
2017-04-13T11:09:40.121Z,70.64
2017-04-13T11:10:52.117Z,70.83
2017-04-13T11:12:04.074Z,71.44
2017-04-13T11:13:16.637Z,72.2
2017-04-13T11:14:28.566Z,71.72
2017-04-13T11:15:40.504Z,72.49
2017-04-13T11:16:52.747Z,71.25
2017-04-13T11:18:04.955Z,71.06
2017-04-13T11:19:16.923Z,71.34
2017-04-13T11:20:28.843Z,71.25
2017-04-13T11:21:41.342Z,71.34
2017-04-13T11:22:53.279Z,70.58
2017-04-13T11:24:05.515Z,70.58
2017-04-13T11:25:17.426Z,70.2
2017-04-13T11:26:29.972Z,70.39
2017-04-13T11:27:41.934Z,71.34
2017-04-13T11:28:54.180Z,71.15
2017-04-13T11:30:05.777Z,68.29
2017-04-13T11:31:17.731Z,68.86
2017-04-13T11:32:30.277Z,67.81
2017-04-13T11:33:42.826Z,66.09
2017-04-13T11:34:55.397Z,65.84
2017-04-13T11:36:07.611Z,66.28
2017-04-13T11:37:20.402Z,66.03
2017-04-13T11:38:32.623Z,66.31
2017-04-13T11:39:44.256Z,67.27
2017-04-13T11:40:56.526Z,66.6
2017-04-13T11:42:09.071Z,66.6
2017-04-13T11:43:21.015Z,66.35
2017-04-13T11:44:33.572Z,67.11
2017-04-13T11:45:46.109Z,66.83
2017-04-13T11:46:58.352Z,66.35
2017-04-13T11:48:10.594Z,67.05
2017-04-13T11:49:23.166Z,66.19
2017-04-13T11:50:35.417Z,66.76
2017-04-13T11:51:47.362Z,65.33
2017-04-13T11:52:59.000Z,65.04
2017-04-13T11:54:10.923Z,64.75
2017-04-13T11:55:22.852Z,63.89
2017-04-13T11:56:35.095Z,63.86
2017-04-13T11:57:47.640Z,63.96
2017-04-13T11:58:59.866Z,63.67
2017-04-13T12:00:12.411Z,63.96
2017-04-13T12:01:24.357Z,63.86
2017-04-13T12:02:36.619Z,64.59
2017-04-13T12:03:47.991Z,64.78
2017-04-13T12:05:00.218Z,65.36
2017-04-13T12:06:12.437Z,65.55
2017-04-13T12:07:24.654Z,64.98
2017-04-13T12:08:37.207Z,65.93
2017-04-13T12:09:49.156Z,66.09
2017-04-13T12:11:01.692Z,66.13
2017-04-13T12:12:13.692Z,66
2017-04-13T12:13:26.229Z,66.38
2017-04-13T12:14:38.462Z,67.14
2017-04-13T12:15:50.677Z,67.33
2017-04-13T12:17:02.930Z,66.92
2017-04-13T12:18:15.171Z,67.77
2017-04-13T12:19:27.691Z,69.31
2017-04-13T12:20:39.916Z,69.31
2017-04-13T12:21:52.434Z,68.63
2017-04-13T12:23:04.972Z,68.82
2017-04-13T12:24:17.177Z,70.07
2017-04-13T12:25:29.471Z,69.84
2017-04-13T12:26:41.138Z,70.13
2017-04-13T12:27:53.691Z,71.66
2017-04-13T12:29:06.209Z,73.18
2017-04-13T12:30:18.152Z,74.13
2017-04-13T12:31:30.371Z,74.04
2017-04-13T12:32:42.297Z,74.19
2017-04-13T12:33:54.572Z,73.81
2017-04-13T12:35:07.118Z,75.15
2017-04-13T12:36:19.060Z,75.62
2017-04-13T12:37:31.301Z,75.05
2017-04-13T12:38:43.845Z,74.86
2017-04-13T12:39:55.751Z,75.24
2017-04-13T12:41:07.997Z,75.05
2017-04-13T12:42:20.233Z,75.91
2017-04-13T12:43:32.735Z,76.48
2017-04-13T12:44:44.957Z,76.86
2017-04-13T12:45:57.506Z,78.39
2017-04-13T12:47:09.768Z,78.2
2017-04-13T12:48:21.711Z,79.25
2017-04-13T12:49:33.943Z,79.15
2017-04-13T12:50:46.178Z,80.01
2017-04-13T12:51:58.408Z,80.49
2017-04-13T12:53:10.647Z,80.77
2017-04-13T12:54:22.872Z,80.77
2017-04-13T12:55:34.787Z,81.35
2017-04-13T12:56:47.337Z,81.92
2017-04-13T12:57:59.570Z,83.16
2017-04-13T12:59:12.108Z,83.06
2017-04-13T13:00:24.658Z,82.4
2017-04-13T13:01:37.170Z,81.54
2017-04-13T13:02:49.109Z,81.35
2017-04-13T13:04:01.343Z,81.06
2017-04-13T13:05:13.888Z,80.39
2017-04-13T13:06:25.800Z,80.58
2017-04-13T13:07:38.331Z,80.68
2017-04-13T13:08:50.546Z,79.91
2017-04-13T13:10:02.521Z,77.91
2017-04-13T13:11:15.038Z,77.62
2017-04-13T13:12:27.283Z,77.44
2017-04-13T13:13:39.209Z,77.44
2017-04-13T13:14:51.431Z,77.25
2017-04-13T13:16:03.351Z,76.39
2017-04-13T13:17:15.589Z,76.39
2017-04-13T13:18:27.209Z,76.86
2017-04-13T13:19:38.530Z,76.01
2017-04-13T13:20:50.459Z,76.77
2017-04-13T13:22:02.707Z,77.53
2017-04-13T13:23:14.956Z,75.62
2017-04-13T13:24:27.500Z,74.38
2017-04-13T13:25:39.710Z,73.81
2017-04-13T13:26:52.244Z,73.81
2017-04-13T13:28:04.152Z,73.81
2017-04-13T13:29:16.359Z,74.19
2017-04-13T13:30:28.598Z,73.91
2017-04-13T13:31:40.851Z,74.38
2017-04-13T13:32:53.093Z,74.19
2017-04-13T13:34:05.337Z,74.1
2017-04-13T13:35:17.905Z,75.05
2017-04-13T13:36:29.848Z,75.05
2017-04-13T13:37:41.194Z,74.67
2017-04-13T13:38:53.773Z,75.24
2017-04-13T13:40:06.015Z,74.29
2017-04-13T13:41:18.260Z,73.28
2017-04-13T13:42:30.181Z,73.24
2017-04-13T13:43:42.106Z,73.66
2017-04-13T13:44:54.345Z,75.28
2017-04-13T13:46:06.269Z,76.52
2017-04-13T13:47:18.222Z,77.34
2017-04-13T13:48:30.459Z,76.71
2017-04-13T13:49:42.661Z,75.81
2017-04-13T13:50:54.952Z,76.57
2017-04-13T13:52:07.171Z,76.77
2017-04-13T13:53:19.448Z,76.71
2017-04-13T13:54:31.677Z,76.42
2017-04-13T13:55:43.620Z,76.23
2017-04-13T13:56:55.856Z,76.42
2017-04-13T13:58:08.385Z,76.33
2017-04-13T13:59:20.307Z,74.99
2017-04-13T14:00:32.555Z,75.28
2017-04-13T14:01:45.112Z,75.47
2017-04-13T14:02:56.734Z,75.09
2017-04-13T14:04:08.355Z,74.71
2017-04-13T14:05:20.587Z,74.42
2017-04-13T14:06:33.125Z,73.94
2017-04-13T14:07:45.667Z,74.71
2017-04-13T14:08:58.471Z,73.98
2017-04-13T14:10:11.019Z,72.83
2017-04-13T14:11:23.538Z,73.03
2017-04-13T14:12:35.777Z,72.83
2017-04-13T14:13:47.984Z,72.07
2017-04-13T14:15:00.527Z,72.07
2017-04-13T14:16:12.447Z,71.5
2017-04-13T14:17:23.792Z,71.59
2017-04-13T14:18:36.052Z,71.5
2017-04-13T14:19:48.255Z,70.26
2017-04-13T14:21:00.505Z,68.54
2017-04-13T14:22:13.024Z,69.49
2017-04-13T14:23:25.243Z,70.26
2017-04-13T14:24:37.189Z,69.87
2017-04-13T14:25:49.119Z,69.87
2017-04-13T14:27:01.681Z,70.83
2017-04-13T14:28:14.228Z,70.79
2017-04-13T14:29:26.781Z,70.83
2017-04-13T14:30:39.298Z,71.56
2017-04-13T14:31:51.861Z,71.5
2017-04-13T14:33:04.364Z,72.07
2017-04-13T14:34:16.906Z,70.26
2017-04-13T14:35:29.428Z,70.16
2017-04-13T14:36:41.069Z,69.87
2017-04-13T14:37:53.298Z,69.21
2017-04-13T14:39:05.843Z,69.21
2017-04-13T14:40:17.789Z,67.87
2017-04-13T14:41:29.414Z,68.26
2017-04-13T14:42:41.096Z,68.44
2017-04-13T14:43:53.634Z,68.16
2017-04-13T14:45:05.869Z,68.16
2017-04-13T14:46:18.145Z,69.11
2017-04-13T14:47:30.383Z,69.11
2017-04-13T14:48:42.291Z,68.57
2017-04-13T14:49:54.825Z,68.76
2017-04-13T14:51:07.056Z,68.19
2017-04-13T14:52:19.603Z,67.91
2017-04-13T14:53:31.850Z,68.19
2017-04-13T14:54:43.466Z,67.62
2017-04-13T14:55:55.386Z,67.62
2017-04-13T14:57:07.329Z,67.71
2017-04-13T14:58:19.871Z,67.43
2017-04-13T14:59:32.468Z,68.1
2017-04-13T15:00:44.992Z,68.67
2017-04-13T15:01:57.526Z,68.57
2017-04-13T15:03:10.083Z,68.35
2017-04-13T15:04:22.609Z,68.82
2017-04-13T15:05:35.157Z,68.63
2017-04-13T15:06:47.728Z,69.4
2017-04-13T15:08:00.264Z,69.78
2017-04-13T15:09:12.496Z,69.68
2017-04-13T15:10:25.038Z,70.36
2017-04-13T15:11:36.951Z,70.45
2017-04-13T15:12:49.479Z,70.64
2017-04-13T15:14:01.693Z,71.12
2017-04-13T15:15:13.922Z,71.69
2017-04-13T15:16:26.459Z,71.59
2017-04-13T15:17:38.716Z,72.26
2017-04-13T15:18:50.965Z,72.03
2017-04-13T15:20:03.505Z,73.37
2017-04-13T15:21:15.747Z,71.08
2017-04-13T15:22:28.290Z,71.18
2017-04-13T15:23:40.812Z,71.27
2017-04-13T15:24:53.043Z,70.89
2017-04-13T15:26:05.553Z,70.79
2017-04-13T15:27:18.099Z,70.42
2017-04-13T15:28:30.644Z,69.93
2017-04-13T15:29:43.141Z,68.6
2017-04-13T15:30:55.372Z,68.6
2017-04-13T15:32:07.914Z,69.27
2017-04-13T15:33:20.467Z,69.46